sensor_id;sensor_type;location;lat;lon;timestamp;temperature;humidity
22923;DHT22;11627;51.322;22.816;2023-06-19T00:00:33;16.70;99.90
22923;DHT22;11627;51.322;22.816;2023-06-19T00:03:00;16.60;99.90
22923;DHT22;11627;51.322;22.816;2023-06-19T00:05:26;16.50;99.90
22923;DHT22;11627;51.322;22.816;2023-06-19T00:07:53;16.40;99.90
22923;DHT22;11627;51.322;22.816;2023-06-19T00:10:19;16.30;99.90
22923;DHT22;11627;51.322;22.816;2023-06-19T00:12:47;16.40;99.90
22923;DHT22;11627;51.322;22.816;2023-06-19T00:15:14;16.40;99.90
22923;DHT22;11627;51.322;22.816;2023-06-19T00:17:41;16.30;99.90
22923;DHT22;11627;51.322;22.816;2023-06-19T00:20:09;16.30;99.90
22923;DHT22;11627;51.322;22.816;2023-06-19T00:22:35;16.30;99.90
22923;DHT22;11627;51.322;22.816;2023-06-19T00:25:03;16.40;99.90
22923;DHT22;11627;51.322;22.816;2023-06-19T00:27:30;16.50;99.90
22923;DHT22;11627;51.322;22.816;2023-06-19T00:29:57;16.50;99.90
22923;DHT22;11627;51.322;22.816;2023-06-19T00:32:29;16.20;99.90
22923;DHT22;11627;51.322;22.816;2023-06-19T00:34:57;16.30;99.90
22923;DHT22;11627;51.322;22.816;2023-06-19T00:37:24;16.30;99.90
22923;DHT22;11627;51.322;22.816;2023-06-19T00:39:51;16.40;99.90
22923;DHT22;11627;51.322;22.816;2023-06-19T00:42:18;16.30;99.90
22923;DHT22;11627;51.322;22.816;2023-06-19T00:44:45;16.20;99.90
22923;DHT22;11627;51.322;22.816;2023-06-19T00:47:12;16.30;99.90
22923;DHT22;11627;51.322;22.816;2023-06-19T00:49:39;16.40;99.90
22923;DHT22;11627;51.322;22.816;2023-06-19T00:52:07;16.30;99.90
22923;DHT22;11627;51.322;22.816;2023-06-19T00:54:34;16.20;99.90
22923;DHT22;11627;51.322;22.816;2023-06-19T00:57:02;16.20;99.90
22923;DHT22;11627;51.322;22.816;2023-06-19T00:59:29;16.20;99.90
22923;DHT22;11627;51.322;22.816;2023-06-19T01:01:56;16.30;99.90
22923;DHT22;11627;51.322;22.816;2023-06-19T01:04:23;16.20;99.90
22923;DHT22;11627;51.322;22.816;2023-06-19T01:07:11;16.30;99.90
22923;DHT22;11627;51.322;22.816;2023-06-19T01:09:49;16.10;99.90
22923;DHT22;11627;51.322;22.816;2023-06-19T01:12:27;16.10;99.90
22923;DHT22;11627;51.322;22.816;2023-06-19T01:14:58;16.20;99.90
22923;DHT22;11627;51.322;22.816;2023-06-19T01:17:31;16.20;99.90
22923;DHT22;11627;51.322;22.816;2023-06-19T01:20:11;16.20;99.90
22923;DHT22;11627;51.322;22.816;2023-06-19T01:22:41;16.00;99.90
22923;DHT22;11627;51.322;22.816;2023-06-19T01:25:10;15.90;99.90
22923;DHT22;11627;51.322;22.816;2023-06-19T01:27:41;15.90;99.90
22923;DHT22;11627;51.322;22.816;2023-06-19T01:30:11;15.90;99.90
22923;DHT22;11627;51.322;22.816;2023-06-19T01:35:33;16.10;99.90
22923;DHT22;11627;51.322;22.816;2023-06-19T01:38:03;15.80;99.90
22923;DHT22;11627;51.322;22.816;2023-06-19T01:40:30;15.60;99.90
22923;DHT22;11627;51.322;22.816;2023-06-19T01:42:59;15.50;99.90
22923;DHT22;11627;51.322;22.816;2023-06-19T01:45:29;15.70;99.90
22923;DHT22;11627;51.322;22.816;2023-06-19T01:47:57;15.90;99.90
22923;DHT22;11627;51.322;22.816;2023-06-19T01:50:25;15.90;99.90
22923;DHT22;11627;51.322;22.816;2023-06-19T01:52:53;15.70;99.90
22923;DHT22;11627;51.322;22.816;2023-06-19T01:55:20;15.70;99.90
22923;DHT22;11627;51.322;22.816;2023-06-19T01:57:47;15.60;99.90
22923;DHT22;11627;51.322;22.816;2023-06-19T02:00:13;15.70;99.90
22923;DHT22;11627;51.322;22.816;2023-06-19T02:02:40;15.90;99.90
22923;DHT22;11627;51.322;22.816;2023-06-19T02:05:07;16.00;99.90
22923;DHT22;11627;51.322;22.816;2023-06-19T02:07:35;16.10;99.90
22923;DHT22;11627;51.322;22.816;2023-06-19T02:10:03;16.10;99.90
22923;DHT22;11627;51.322;22.816;2023-06-19T02:12:32;16.10;99.90
22923;DHT22;11627;51.322;22.816;2023-06-19T02:14:59;16.20;99.90
22923;DHT22;11627;51.322;22.816;2023-06-19T02:17:26;16.20;99.90
22923;DHT22;11627;51.322;22.816;2023-06-19T02:19:53;16.10;99.90
22923;DHT22;11627;51.322;22.816;2023-06-19T02:22:21;16.00;99.90
22923;DHT22;11627;51.322;22.816;2023-06-19T02:24:47;15.90;99.90
22923;DHT22;11627;51.322;22.816;2023-06-19T02:27:14;15.80;99.90
22923;DHT22;11627;51.322;22.816;2023-06-19T02:29:42;15.60;99.90
22923;DHT22;11627;51.322;22.816;2023-06-19T02:32:10;15.70;99.90
22923;DHT22;11627;51.322;22.816;2023-06-19T02:34:37;15.80;99.90
22923;DHT22;11627;51.322;22.816;2023-06-19T02:37:05;15.90;99.90
22923;DHT22;11627;51.322;22.816;2023-06-19T02:39:32;15.90;99.90
22923;DHT22;11627;51.322;22.816;2023-06-19T02:41:59;16.00;99.90
22923;DHT22;11627;51.322;22.816;2023-06-19T02:44:26;15.90;99.90
22923;DHT22;11627;51.322;22.816;2023-06-19T02:46:54;16.00;99.90
22923;DHT22;11627;51.322;22.816;2023-06-19T02:49:21;16.10;99.90
22923;DHT22;11627;51.322;22.816;2023-06-19T02:51:49;16.10;99.90
22923;DHT22;11627;51.322;22.816;2023-06-19T02:54:16;16.00;99.90
22923;DHT22;11627;51.322;22.816;2023-06-19T02:56:43;16.00;99.90
22923;DHT22;11627;51.322;22.816;2023-06-19T02:59:10;16.00;99.90
22923;DHT22;11627;51.322;22.816;2023-06-19T03:01:37;15.80;99.90
22923;DHT22;11627;51.322;22.816;2023-06-19T03:04:04;15.90;99.90
22923;DHT22;11627;51.322;22.816;2023-06-19T03:06:31;15.90;99.90
22923;DHT22;11627;51.322;22.816;2023-06-19T03:09:01;15.80;99.90
22923;DHT22;11627;51.322;22.816;2023-06-19T03:11:28;15.90;99.90
22923;DHT22;11627;51.322;22.816;2023-06-19T03:13:56;16.00;99.90
22923;DHT22;11627;51.322;22.816;2023-06-19T03:16:23;16.00;99.90
22923;DHT22;11627;51.322;22.816;2023-06-19T03:18:50;16.00;99.90
22923;DHT22;11627;51.322;22.816;2023-06-19T03:21:17;16.00;99.90
22923;DHT22;11627;51.322;22.816;2023-06-19T03:23:46;16.00;99.90
22923;DHT22;11627;51.322;22.816;2023-06-19T03:26:15;16.00;99.90
22923;DHT22;11627;51.322;22.816;2023-06-19T03:28:42;16.00;99.90
22923;DHT22;11627;51.322;22.816;2023-06-19T03:31:08;16.00;99.90
22923;DHT22;11627;51.322;22.816;2023-06-19T03:33:36;16.00;99.90
22923;DHT22;11627;51.322;22.816;2023-06-19T03:36:02;16.00;99.90
22923;DHT22;11627;51.322;22.816;2023-06-19T03:38:29;16.00;99.90
22923;DHT22;11627;51.322;22.816;2023-06-19T03:40:56;15.90;99.90
22923;DHT22;11627;51.322;22.816;2023-06-19T03:43:24;15.90;99.90
22923;DHT22;11627;51.322;22.816;2023-06-19T03:45:51;15.90;99.90
22923;DHT22;11627;51.322;22.816;2023-06-19T03:48:18;15.90;99.90
22923;DHT22;11627;51.322;22.816;2023-06-19T03:50:45;15.90;99.90
22923;DHT22;11627;51.322;22.816;2023-06-19T03:53:12;16.00;99.90
22923;DHT22;11627;51.322;22.816;2023-06-19T03:55:40;16.00;99.90
22923;DHT22;11627;51.322;22.816;2023-06-19T03:58:07;15.90;99.90
22923;DHT22;11627;51.322;22.816;2023-06-19T04:00:34;15.90;99.90
22923;DHT22;11627;51.322;22.816;2023-06-19T04:03:01;16.00;99.90
22923;DHT22;11627;51.322;22.816;2023-06-19T04:05:27;16.00;99.90
22923;DHT22;11627;51.322;22.816;2023-06-19T04:07:54;16.00;99.90
22923;DHT22;11627;51.322;22.816;2023-06-19T04:10:22;16.00;99.90
22923;DHT22;11627;51.322;22.816;2023-06-19T04:12:49;16.00;99.90
22923;DHT22;11627;51.322;22.816;2023-06-19T04:15:15;16.00;99.90
22923;DHT22;11627;51.322;22.816;2023-06-19T04:17:42;16.10;99.90
22923;DHT22;11627;51.322;22.816;2023-06-19T04:20:10;16.10;99.90
22923;DHT22;11627;51.322;22.816;2023-06-19T04:22:40;16.10;99.90
22923;DHT22;11627;51.322;22.816;2023-06-19T04:25:08;16.10;99.90
22923;DHT22;11627;51.322;22.816;2023-06-19T04:27:37;16.10;99.90
22923;DHT22;11627;51.322;22.816;2023-06-19T04:30:05;16.20;99.90
22923;DHT22;11627;51.322;22.816;2023-06-19T04:32:33;16.20;99.90
22923;DHT22;11627;51.322;22.816;2023-06-19T04:35:09;16.30;99.90
22923;DHT22;11627;51.322;22.816;2023-06-19T04:37:36;16.50;99.90
22923;DHT22;11627;51.322;22.816;2023-06-19T04:40:04;16.50;99.90
22923;DHT22;11627;51.322;22.816;2023-06-19T04:42:33;16.60;99.90
22923;DHT22;11627;51.322;22.816;2023-06-19T04:45:00;16.70;99.90
22923;DHT22;11627;51.322;22.816;2023-06-19T04:47:27;16.80;99.90
22923;DHT22;11627;51.322;22.816;2023-06-19T04:49:54;16.90;99.90
22923;DHT22;11627;51.322;22.816;2023-06-19T04:52:21;17.00;99.90
22923;DHT22;11627;51.322;22.816;2023-06-19T04:54:49;17.00;99.90
22923;DHT22;11627;51.322;22.816;2023-06-19T04:57:16;16.90;99.90
22923;DHT22;11627;51.322;22.816;2023-06-19T04:59:44;16.90;99.90
22923;DHT22;11627;51.322;22.816;2023-06-19T05:02:11;16.90;99.90
22923;DHT22;11627;51.322;22.816;2023-06-19T05:04:38;17.00;99.90
22923;DHT22;11627;51.322;22.816;2023-06-19T05:07:10;17.00;99.90
22923;DHT22;11627;51.322;22.816;2023-06-19T05:09:39;17.10;99.90
22923;DHT22;11627;51.322;22.816;2023-06-19T05:12:06;17.10;99.90
22923;DHT22;11627;51.322;22.816;2023-06-19T05:14:34;17.20;99.90
22923;DHT22;11627;51.322;22.816;2023-06-19T05:17:01;17.20;99.90
22923;DHT22;11627;51.322;22.816;2023-06-19T05:19:27;17.30;99.90
22923;DHT22;11627;51.322;22.816;2023-06-19T05:21:54;17.30;99.90
22923;DHT22;11627;51.322;22.816;2023-06-19T05:24:22;17.40;99.90
22923;DHT22;11627;51.322;22.816;2023-06-19T05:26:49;17.50;99.90
22923;DHT22;11627;51.322;22.816;2023-06-19T05:29:16;17.40;99.90
22923;DHT22;11627;51.322;22.816;2023-06-19T05:31:43;17.50;99.90
22923;DHT22;11627;51.322;22.816;2023-06-19T05:34:10;17.50;99.90
22923;DHT22;11627;51.322;22.816;2023-06-19T05:36:38;17.50;99.90
22923;DHT22;11627;51.322;22.816;2023-06-19T05:39:05;17.60;99.90
22923;DHT22;11627;51.322;22.816;2023-06-19T05:41:32;17.70;99.90
22923;DHT22;11627;51.322;22.816;2023-06-19T05:43:59;17.60;99.90
22923;DHT22;11627;51.322;22.816;2023-06-19T05:46:27;17.60;99.90
22923;DHT22;11627;51.322;22.816;2023-06-19T05:48:54;17.70;99.90
22923;DHT22;11627;51.322;22.816;2023-06-19T05:51:21;17.70;99.90
22923;DHT22;11627;51.322;22.816;2023-06-19T05:53:48;17.70;99.90
22923;DHT22;11627;51.322;22.816;2023-06-19T05:56:18;17.80;99.90
22923;DHT22;11627;51.322;22.816;2023-06-19T05:58:48;17.70;99.90
22923;DHT22;11627;51.322;22.816;2023-06-19T06:01:15;17.90;99.90
22923;DHT22;11627;51.322;22.816;2023-06-19T06:03:45;17.80;99.90
22923;DHT22;11627;51.322;22.816;2023-06-19T06:06:13;17.90;99.90
22923;DHT22;11627;51.322;22.816;2023-06-19T06:08:40;17.90;99.90
22923;DHT22;11627;51.322;22.816;2023-06-19T06:11:07;18.00;99.90
22923;DHT22;11627;51.322;22.816;2023-06-19T06:13:34;18.00;99.90
22923;DHT22;11627;51.322;22.816;2023-06-19T06:16:02;18.00;99.90
22923;DHT22;11627;51.322;22.816;2023-06-19T06:18:29;18.10;99.90
22923;DHT22;11627;51.322;22.816;2023-06-19T06:20:57;18.20;99.90
22923;DHT22;11627;51.322;22.816;2023-06-19T06:23:25;18.20;99.90
22923;DHT22;11627;51.322;22.816;2023-06-19T06:25:52;18.20;99.90
22923;DHT22;11627;51.322;22.816;2023-06-19T06:28:20;18.20;99.90
22923;DHT22;11627;51.322;22.816;2023-06-19T06:30:47;18.30;99.90
22923;DHT22;11627;51.322;22.816;2023-06-19T06:33:14;18.30;99.90
22923;DHT22;11627;51.322;22.816;2023-06-19T06:35:41;18.40;99.90
22923;DHT22;11627;51.322;22.816;2023-06-19T06:38:08;18.40;99.90
22923;DHT22;11627;51.322;22.816;2023-06-19T06:40:35;18.60;99.90
22923;DHT22;11627;51.322;22.816;2023-06-19T06:43:03;18.60;99.90
22923;DHT22;11627;51.322;22.816;2023-06-19T06:45:30;18.60;99.90
22923;DHT22;11627;51.322;22.816;2023-06-19T06:47:57;18.60;99.90
22923;DHT22;11627;51.322;22.816;2023-06-19T06:50:24;18.70;99.90
22923;DHT22;11627;51.322;22.816;2023-06-19T06:52:53;18.70;99.90
22923;DHT22;11627;51.322;22.816;2023-06-19T06:55:20;18.80;99.90
22923;DHT22;11627;51.322;22.816;2023-06-19T06:57:48;18.80;99.90
22923;DHT22;11627;51.322;22.816;2023-06-19T07:00:14;18.80;99.90
22923;DHT22;11627;51.322;22.816;2023-06-19T07:02:42;18.90;99.90
22923;DHT22;11627;51.322;22.816;2023-06-19T07:05:10;18.90;99.90
22923;DHT22;11627;51.322;22.816;2023-06-19T07:07:37;19.00;99.90
22923;DHT22;11627;51.322;22.816;2023-06-19T07:10:05;19.00;99.90
22923;DHT22;11627;51.322;22.816;2023-06-19T07:12:33;19.00;99.90
22923;DHT22;11627;51.322;22.816;2023-06-19T07:15:00;19.10;99.90
22923;DHT22;11627;51.322;22.816;2023-06-19T07:17:27;19.20;99.90
22923;DHT22;11627;51.322;22.816;2023-06-19T07:19:54;19.20;99.90
22923;DHT22;11627;51.322;22.816;2023-06-19T07:22:21;19.30;99.90
22923;DHT22;11627;51.322;22.816;2023-06-19T07:24:48;19.40;99.90
22923;DHT22;11627;51.322;22.816;2023-06-19T07:27:15;19.30;99.90
22923;DHT22;11627;51.322;22.816;2023-06-19T07:29:44;19.40;99.90
22923;DHT22;11627;51.322;22.816;2023-06-19T07:32:11;19.40;99.90
22923;DHT22;11627;51.322;22.816;2023-06-19T07:34:38;19.50;99.90
22923;DHT22;11627;51.322;22.816;2023-06-19T07:37:05;19.50;99.90
22923;DHT22;11627;51.322;22.816;2023-06-19T07:39:32;19.50;99.90
22923;DHT22;11627;51.322;22.816;2023-06-19T07:42:00;19.60;99.90
22923;DHT22;11627;51.322;22.816;2023-06-19T07:44:27;19.70;99.90
22923;DHT22;11627;51.322;22.816;2023-06-19T07:46:54;19.70;99.90
22923;DHT22;11627;51.322;22.816;2023-06-19T07:49:21;19.70;99.90
22923;DHT22;11627;51.322;22.816;2023-06-19T07:51:48;19.70;99.90
22923;DHT22;11627;51.322;22.816;2023-06-19T07:54:15;19.70;99.90
22923;DHT22;11627;51.322;22.816;2023-06-19T07:56:41;19.80;99.90
22923;DHT22;11627;51.322;22.816;2023-06-19T07:59:07;19.80;99.90
22923;DHT22;11627;51.322;22.816;2023-06-19T08:01:33;19.80;99.90
22923;DHT22;11627;51.322;22.816;2023-06-19T08:03:59;19.80;99.90
22923;DHT22;11627;51.322;22.816;2023-06-19T08:06:24;19.80;99.90
22923;DHT22;11627;51.322;22.816;2023-06-19T08:08:50;19.90;99.90
22923;DHT22;11627;51.322;22.816;2023-06-19T08:11:17;19.90;99.90
22923;DHT22;11627;51.322;22.816;2023-06-19T08:13:43;19.90;99.90
22923;DHT22;11627;51.322;22.816;2023-06-19T08:16:09;20.00;99.90
22923;DHT22;11627;51.322;22.816;2023-06-19T08:18:36;20.00;99.90
22923;DHT22;11627;51.322;22.816;2023-06-19T08:21:02;20.10;99.90
22923;DHT22;11627;51.322;22.816;2023-06-19T08:23:30;20.10;99.90
22923;DHT22;11627;51.322;22.816;2023-06-19T08:25:57;20.20;99.90
22923;DHT22;11627;51.322;22.816;2023-06-19T08:28:22;20.20;99.90
22923;DHT22;11627;51.322;22.816;2023-06-19T08:30:52;20.20;99.90
22923;DHT22;11627;51.322;22.816;2023-06-19T08:33:19;20.20;99.90
22923;DHT22;11627;51.322;22.816;2023-06-19T08:35:46;20.30;99.90
22923;DHT22;11627;51.322;22.816;2023-06-19T08:38:15;20.30;99.90
22923;DHT22;11627;51.322;22.816;2023-06-19T08:40:42;20.30;99.90
22923;DHT22;11627;51.322;22.816;2023-06-19T08:43:11;20.40;99.90
22923;DHT22;11627;51.322;22.816;2023-06-19T08:45:38;20.50;99.90
22923;DHT22;11627;51.322;22.816;2023-06-19T08:48:04;20.50;99.90
22923;DHT22;11627;51.322;22.816;2023-06-19T08:50:32;20.50;99.90
22923;DHT22;11627;51.322;22.816;2023-06-19T08:52:59;20.50;99.90
22923;DHT22;11627;51.322;22.816;2023-06-19T08:55:27;20.50;99.90
22923;DHT22;11627;51.322;22.816;2023-06-19T08:57:54;20.60;99.90
22923;DHT22;11627;51.322;22.816;2023-06-19T09:00:29;20.60;99.90
22923;DHT22;11627;51.322;22.816;2023-06-19T09:03:03;20.60;99.90
22923;DHT22;11627;51.322;22.816;2023-06-19T09:05:30;20.50;99.90
22923;DHT22;11627;51.322;22.816;2023-06-19T09:07:59;20.50;99.90
22923;DHT22;11627;51.322;22.816;2023-06-19T09:10:31;20.60;99.90
22923;DHT22;11627;51.322;22.816;2023-06-19T09:12:59;20.60;99.90
22923;DHT22;11627;51.322;22.816;2023-06-19T09:15:34;20.60;99.90
22923;DHT22;11627;51.322;22.816;2023-06-19T09:18:06;20.60;99.90
22923;DHT22;11627;51.322;22.816;2023-06-19T09:20:38;20.60;99.90
22923;DHT22;11627;51.322;22.816;2023-06-19T09:23:17;20.60;99.90
22923;DHT22;11627;51.322;22.816;2023-06-19T09:25:52;20.70;99.90
22923;DHT22;11627;51.322;22.816;2023-06-19T09:28:27;20.70;99.90
22923;DHT22;11627;51.322;22.816;2023-06-19T09:31:13;20.70;99.90
22923;DHT22;11627;51.322;22.816;2023-06-19T09:33:40;20.80;99.90
22923;DHT22;11627;51.322;22.816;2023-06-19T09:36:07;20.80;99.90
22923;DHT22;11627;51.322;22.816;2023-06-19T09:38:36;20.80;99.90
22923;DHT22;11627;51.322;22.816;2023-06-19T09:41:06;20.90;99.90
22923;DHT22;11627;51.322;22.816;2023-06-19T09:43:41;20.90;99.90
22923;DHT22;11627;51.322;22.816;2023-06-19T09:46:11;20.90;99.90
22923;DHT22;11627;51.322;22.816;2023-06-19T09:48:45;21.00;99.90
22923;DHT22;11627;51.322;22.816;2023-06-19T09:51:29;21.20;99.90
22923;DHT22;11627;51.322;22.816;2023-06-19T09:53:57;21.30;99.90
22923;DHT22;11627;51.322;22.816;2023-06-19T09:56:43;21.20;99.90
22923;DHT22;11627;51.322;22.816;2023-06-19T09:59:10;21.10;99.90
22923;DHT22;11627;51.322;22.816;2023-06-19T10:01:36;21.20;99.90
22923;DHT22;11627;51.322;22.816;2023-06-19T10:04:05;21.20;99.90
22923;DHT22;11627;51.322;22.816;2023-06-19T10:06:43;21.20;99.90
22923;DHT22;11627;51.322;22.816;2023-06-19T10:09:13;21.20;99.90
22923;DHT22;11627;51.322;22.816;2023-06-19T10:11:51;21.20;99.90
22923;DHT22;11627;51.322;22.816;2023-06-19T10:14:20;21.30;99.90
22923;DHT22;11627;51.322;22.816;2023-06-19T10:16:47;21.30;99.90
22923;DHT22;11627;51.322;22.816;2023-06-19T10:19:20;21.30;99.90
22923;DHT22;11627;51.322;22.816;2023-06-19T10:21:50;21.40;99.90
22923;DHT22;11627;51.322;22.816;2023-06-19T10:24:19;21.30;99.90
22923;DHT22;11627;51.322;22.816;2023-06-19T10:27:02;21.30;99.90
22923;DHT22;11627;51.322;22.816;2023-06-19T10:29:40;21.30;99.90
22923;DHT22;11627;51.322;22.816;2023-06-19T10:32:06;21.20;99.90
22923;DHT22;11627;51.322;22.816;2023-06-19T10:34:36;21.30;99.90
22923;DHT22;11627;51.322;22.816;2023-06-19T10:37:03;21.30;99.90
22923;DHT22;11627;51.322;22.816;2023-06-19T10:39:34;21.40;99.90
22923;DHT22;11627;51.322;22.816;2023-06-19T10:42:04;21.40;99.90
22923;DHT22;11627;51.322;22.816;2023-06-19T10:44:33;21.50;99.90
22923;DHT22;11627;51.322;22.816;2023-06-19T10:47:01;21.50;99.90
22923;DHT22;11627;51.322;22.816;2023-06-19T10:49:30;21.50;99.90
22923;DHT22;11627;51.322;22.816;2023-06-19T10:51:59;21.50;99.90
22923;DHT22;11627;51.322;22.816;2023-06-19T10:54:29;21.50;99.90
22923;DHT22;11627;51.322;22.816;2023-06-19T10:56:58;21.40;99.90
22923;DHT22;11627;51.322;22.816;2023-06-19T10:59:28;21.40;99.90
22923;DHT22;11627;51.322;22.816;2023-06-19T11:01:54;21.40;99.90
22923;DHT22;11627;51.322;22.816;2023-06-19T11:04:20;21.40;99.90
22923;DHT22;11627;51.322;22.816;2023-06-19T11:06:49;21.50;99.90
22923;DHT22;11627;51.322;22.816;2023-06-19T11:09:16;21.60;99.90
22923;DHT22;11627;51.322;22.816;2023-06-19T11:11:44;21.60;99.90
22923;DHT22;11627;51.322;22.816;2023-06-19T11:14:13;21.60;99.90
22923;DHT22;11627;51.322;22.816;2023-06-19T11:16:42;21.60;99.90
22923;DHT22;11627;51.322;22.816;2023-06-19T11:19:20;21.60;99.90
22923;DHT22;11627;51.322;22.816;2023-06-19T11:21:51;21.60;99.90
22923;DHT22;11627;51.322;22.816;2023-06-19T11:24:30;21.60;99.90
22923;DHT22;11627;51.322;22.816;2023-06-19T11:26:56;21.60;99.90
22923;DHT22;11627;51.322;22.816;2023-06-19T11:29:29;21.60;99.90
22923;DHT22;11627;51.322;22.816;2023-06-19T11:32:13;21.70;99.90
22923;DHT22;11627;51.322;22.816;2023-06-19T11:34:41;21.70;99.90
22923;DHT22;11627;51.322;22.816;2023-06-19T11:37:15;21.80;99.90
22923;DHT22;11627;51.322;22.816;2023-06-19T11:39:44;21.80;99.90
22923;DHT22;11627;51.322;22.816;2023-06-19T11:42:13;21.90;99.90
22923;DHT22;11627;51.322;22.816;2023-06-19T11:44:57;22.00;99.90
22923;DHT22;11627;51.322;22.816;2023-06-19T11:47:34;22.20;99.90
22923;DHT22;11627;51.322;22.816;2023-06-19T11:50:00;22.30;99.90
22923;DHT22;11627;51.322;22.816;2023-06-19T11:52:26;22.30;99.90
22923;DHT22;11627;51.322;22.816;2023-06-19T11:54:54;22.30;99.90
22923;DHT22;11627;51.322;22.816;2023-06-19T11:57:21;22.30;99.90
22923;DHT22;11627;51.322;22.816;2023-06-19T11:59:47;22.30;99.90
22923;DHT22;11627;51.322;22.816;2023-06-19T12:02:13;22.30;99.90
22923;DHT22;11627;51.322;22.816;2023-06-19T12:04:39;22.20;99.90
22923;DHT22;11627;51.322;22.816;2023-06-19T12:07:05;22.10;99.90
22923;DHT22;11627;51.322;22.816;2023-06-19T12:09:31;22.10;99.90
22923;DHT22;11627;51.322;22.816;2023-06-19T12:11:59;22.20;99.90
22923;DHT22;11627;51.322;22.816;2023-06-19T12:14:27;22.30;99.90
22923;DHT22;11627;51.322;22.816;2023-06-19T12:16:54;22.30;99.90
22923;DHT22;11627;51.322;22.816;2023-06-19T12:19:20;22.40;99.90
22923;DHT22;11627;51.322;22.816;2023-06-19T12:21:46;22.40;99.90
22923;DHT22;11627;51.322;22.816;2023-06-19T12:24:12;22.40;99.90
22923;DHT22;11627;51.322;22.816;2023-06-19T12:26:38;22.50;99.90
22923;DHT22;11627;51.322;22.816;2023-06-19T12:29:06;22.50;99.90
22923;DHT22;11627;51.322;22.816;2023-06-19T12:31:33;22.60;99.90
22923;DHT22;11627;51.322;22.816;2023-06-19T12:34:01;22.70;99.90
22923;DHT22;11627;51.322;22.816;2023-06-19T12:36:29;22.70;99.90
22923;DHT22;11627;51.322;22.816;2023-06-19T12:38:59;22.70;99.90
22923;DHT22;11627;51.322;22.816;2023-06-19T12:41:29;22.70;99.90
22923;DHT22;11627;51.322;22.816;2023-06-19T12:43:55;22.80;99.90
22923;DHT22;11627;51.322;22.816;2023-06-19T12:46:22;22.70;99.90
22923;DHT22;11627;51.322;22.816;2023-06-19T12:48:48;22.80;99.90
22923;DHT22;11627;51.322;22.816;2023-06-19T12:51:18;22.90;99.90
22923;DHT22;11627;51.322;22.816;2023-06-19T12:53:45;22.90;99.90
22923;DHT22;11627;51.322;22.816;2023-06-19T12:56:12;22.90;99.90
22923;DHT22;11627;51.322;22.816;2023-06-19T12:58:39;22.90;99.90
22923;DHT22;11627;51.322;22.816;2023-06-19T13:01:07;23.10;20.40
22923;DHT22;11627;51.322;22.816;2023-06-19T13:03:35;23.10;51.00
22923;DHT22;11627;51.322;22.816;2023-06-19T13:06:03;23.10;99.90
22923;DHT22;11627;51.322;22.816;2023-06-19T13:08:30;23.20;99.90
22923;DHT22;11627;51.322;22.816;2023-06-19T13:10:56;23.20;99.90
22923;DHT22;11627;51.322;22.816;2023-06-19T13:13:24;23.20;99.90
22923;DHT22;11627;51.322;22.816;2023-06-19T13:15:51;23.20;99.90
22923;DHT22;11627;51.322;22.816;2023-06-19T13:18:18;23.20;99.90
22923;DHT22;11627;51.322;22.816;2023-06-19T13:20:46;23.30;99.90
22923;DHT22;11627;51.322;22.816;2023-06-19T13:23:14;23.30;99.90
22923;DHT22;11627;51.322;22.816;2023-06-19T13:25:40;23.40;99.90
22923;DHT22;11627;51.322;22.816;2023-06-19T13:28:06;23.50;99.90
22923;DHT22;11627;51.322;22.816;2023-06-19T13:30:33;23.50;99.90
22923;DHT22;11627;51.322;22.816;2023-06-19T13:33:00;23.50;99.90
22923;DHT22;11627;51.322;22.816;2023-06-19T13:35:27;23.40;8.40
22923;DHT22;11627;51.322;22.816;2023-06-19T13:37:54;23.50;99.90
22923;DHT22;11627;51.322;22.816;2023-06-19T13:40:23;23.50;99.90
22923;DHT22;11627;51.322;22.816;2023-06-19T13:42:50;23.40;1.00
22923;DHT22;11627;51.322;22.816;2023-06-19T13:45:16;23.60;1.00
22923;DHT22;11627;51.322;22.816;2023-06-19T13:47:43;23.70;99.90
22923;DHT22;11627;51.322;22.816;2023-06-19T13:50:12;23.70;1.00
22923;DHT22;11627;51.322;22.816;2023-06-19T13:52:47;23.70;99.90
22923;DHT22;11627;51.322;22.816;2023-06-19T13:55:14;23.70;99.90
22923;DHT22;11627;51.322;22.816;2023-06-19T13:57:43;23.50;99.90
22923;DHT22;11627;51.322;22.816;2023-06-19T14:00:11;23.50;99.90
22923;DHT22;11627;51.322;22.816;2023-06-19T14:02:39;23.50;99.90
22923;DHT22;11627;51.322;22.816;2023-06-19T14:05:11;23.30;43.40
22923;DHT22;11627;51.322;22.816;2023-06-19T14:07:42;23.30;99.90
22923;DHT22;11627;51.322;22.816;2023-06-19T14:10:09;23.50;99.90
22923;DHT22;11627;51.322;22.816;2023-06-19T14:12:36;23.80;99.90
22923;DHT22;11627;51.322;22.816;2023-06-19T14:15:05;23.80;99.90
22923;DHT22;11627;51.322;22.816;2023-06-19T14:17:34;23.80;99.90
22923;DHT22;11627;51.322;22.816;2023-06-19T14:20:03;23.90;99.90
22923;DHT22;11627;51.322;22.816;2023-06-19T14:22:32;24.20;99.90
22923;DHT22;11627;51.322;22.816;2023-06-19T14:24:59;24.20;99.90
22923;DHT22;11627;51.322;22.816;2023-06-19T14:27:26;24.20;1.00
22923;DHT22;11627;51.322;22.816;2023-06-19T14:29:56;24.20;99.90
22923;DHT22;11627;51.322;22.816;2023-06-19T14:32:23;24.10;99.90
22923;DHT22;11627;51.322;22.816;2023-06-19T14:34:51;24.10;99.90
22923;DHT22;11627;51.322;22.816;2023-06-19T14:37:18;24.00;99.90
22923;DHT22;11627;51.322;22.816;2023-06-19T14:39:47;24.00;99.90
22923;DHT22;11627;51.322;22.816;2023-06-19T14:42:16;23.90;1.00
22923;DHT22;11627;51.322;22.816;2023-06-19T14:44:42;23.90;99.90
22923;DHT22;11627;51.322;22.816;2023-06-19T14:47:08;24.00;96.40
22923;DHT22;11627;51.322;22.816;2023-06-19T14:49:35;24.00;90.80
22923;DHT22;11627;51.322;22.816;2023-06-19T14:52:01;24.10;85.40
22923;DHT22;11627;51.322;22.816;2023-06-19T14:54:28;24.10;28.80
22923;DHT22;11627;51.322;22.816;2023-06-19T14:56:56;24.20;91.70
22923;DHT22;11627;51.322;22.816;2023-06-19T14:59:22;24.20;1.00
22923;DHT22;11627;51.322;22.816;2023-06-19T15:01:49;24.20;99.90
22923;DHT22;11627;51.322;22.816;2023-06-19T15:04:16;24.20;1.00
22923;DHT22;11627;51.322;22.816;2023-06-19T15:06:43;24.20;99.90
22923;DHT22;11627;51.322;22.816;2023-06-19T15:09:09;24.20;1.00
22923;DHT22;11627;51.322;22.816;2023-06-19T15:11:36;24.30;1.00
22923;DHT22;11627;51.322;22.816;2023-06-19T15:14:03;24.40;99.90
22923;DHT22;11627;51.322;22.816;2023-06-19T15:16:31;24.40;1.00
22923;DHT22;11627;51.322;22.816;2023-06-19T15:18:58;24.40;1.00
22923;DHT22;11627;51.322;22.816;2023-06-19T15:21:26;24.70;1.00
22923;DHT22;11627;51.322;22.816;2023-06-19T15:23:56;24.80;99.90
22923;DHT22;11627;51.322;22.816;2023-06-19T15:26:23;25.00;1.00